»·PEaware :: N653AW KFAT-KSBP

N653AW :: KFAT-KSBP

FLIGHT INFORMATION

Flight Status: Arrived
Operator: Privately registered:
United States
More flights under this callsign
Pilot: Sergei F. (8485)
Aircraft: AIRBUS A320
(A320)
More flights by this aircraft type
Origin: KFAT Fresno Yosemite Intl
United States
Destination: KSBP San Luis Co Regl
United States
More flights between these airports :: More routes between these airports
Route: +BULL3 AVE V248 PRB T329 MQO
File this flight plan on PilotEdge
Remarks:
Altitude:
(Current/Filed)
16,000ft
Speed:
(Current/Filed)
400kts
Departed: 31-Jul-20 09:48 PM
Arrived: 31-Jul-20 10:17 PM
Distance/Time
Traveled:
103nm/0:29
Distance/Time
To Go:
Arrived

Flight Plot

Page will automatically refresh every two minutes.


Map Options




Map Legend


Flown Route
Filed Route
Departure Airport
Arrival Airport
Navaid (VOR, NDB)
Fix

Horizontal Profiles

Position Reports

Time Latitude Longitude Heading Altitude Ground
Speed
31-Jul-20 21:25 36.771402 -119.717779 303 333ft 0kts
31-Jul-20 21:26 36.771402 -119.717779 303 333ft 0kts
31-Jul-20 21:27 36.771402 -119.717779 303 333ft 0kts
31-Jul-20 21:28 36.771402 -119.717779 303 333ft 0kts
31-Jul-20 21:29 36.771402 -119.717779 303 333ft 0kts
31-Jul-20 21:30 36.771402 -119.717779 303 333ft 0kts
31-Jul-20 21:31 36.771402 -119.717779 303 333ft 0kts
31-Jul-20 21:32 36.771402 -119.717779 303 333ft 0kts
31-Jul-20 21:33 36.771402 -119.717779 303 333ft 0kts
31-Jul-20 21:34 36.771402 -119.717779 303 333ft 0kts
31-Jul-20 21:35 36.771371 -119.717721 303 333ft 2kts
31-Jul-20 21:36 36.770966 -119.717312 3 333ft 2kts
31-Jul-20 21:37 36.771284 -119.716949 35 334ft 2kts
31-Jul-20 21:38 36.771323 -119.716914 35 334ft 0kts
31-Jul-20 21:38 36.771323 -119.716914 35 334ft 0kts
31-Jul-20 21:40 36.771323 -119.716914 35 334ft 0kts
31-Jul-20 21:41 36.771328 -119.716910 35 334ft 0kts
31-Jul-20 21:41 36.772143 -119.715954 90 334ft 6kts
31-Jul-20 21:43 36.770689 -119.713267 125 334ft 8kts
31-Jul-20 21:43 36.769415 -119.711036 125 334ft 10kts
31-Jul-20 21:44 36.767698 -119.708009 117 334ft 8kts
31-Jul-20 21:45 36.767600 -119.705167 89 335ft 4kts
31-Jul-20 21:46 36.768515 -119.704020 34 337ft 5kts
31-Jul-20 21:47 36.770513 -119.706470 305 335ft 72kts
31-Jul-20 21:48 36.793358 -119.746612 305 2619ft 162kts
31-Jul-20 21:49 36.825830 -119.802513 305 5193ft 225kts
31-Jul-20 21:50 36.852502 -119.872268 253 8622ft 242kts
31-Jul-20 21:51 36.804708 -119.918849 207 9995ft 301kts
31-Jul-20 21:52 36.726656 -119.967688 208 10607ft 334kts
31-Jul-20 21:53 36.635012 -120.025733 207 11719ft 399kts
31-Jul-20 21:54 36.533791 -120.089676 208 13672ft 415kts
31-Jul-20 21:55 36.429546 -120.155397 208 15628ft 423kts
31-Jul-20 21:56 36.324041 -120.221755 208 15943ft 428kts
31-Jul-20 21:57 36.217386 -120.288637 208 15949ft 428kts
31-Jul-20 21:58 36.111310 -120.354959 208 15963ft 427kts
31-Jul-20 21:59 36.005042 -120.421205 208 15955ft 424kts
31-Jul-20 22:00 35.906314 -120.482446 208 14862ft 379kts
31-Jul-20 22:01 35.813234 -120.540202 208 12457ft 371kts
31-Jul-20 22:02 35.724167 -120.595261 208 10752ft 345kts
31-Jul-20 22:03 35.640755 -120.637033 196 9962ft 304kts
31-Jul-20 22:04 35.562373 -120.661836 196 8644ft 276kts
31-Jul-20 22:05 35.494178 -120.683194 196 7896ft 233kts
31-Jul-20 22:06 35.434894 -120.702105 196 6971ft 215kts
31-Jul-20 22:07 35.377366 -120.720366 194 5879ft 208kts
31-Jul-20 22:08 35.320778 -120.738930 198 4550ft 214kts
31-Jul-20 22:09 35.264619 -120.759298 189 3674ft 200kts
31-Jul-20 22:10 35.226817 -120.726156 119 3154ft 177kts
31-Jul-20 22:11 35.204600 -120.671405 117 2334ft 177kts
31-Jul-20 22:12 35.179964 -120.621720 123 1660ft 165kts
31-Jul-20 22:13 35.182510 -120.575200 26 1670ft 162kts
31-Jul-20 22:14 35.211551 -120.594709 301 1226ft 137kts
31-Jul-20 22:15 35.233015 -120.633404 304 263ft 133kts
31-Jul-20 22:16 35.240745 -120.646974 305 221ft 7kts
31-Jul-20 22:17 35.241026 -120.645598 125 221ft 7kts
31-Jul-20 22:18 35.239682 -120.643240 124 221ft 10kts
31-Jul-20 22:19 35.238647 -120.641619 124 221ft 6kts
31-Jul-20 22:20 35.237650 -120.639677 123 221ft 7kts
31-Jul-20 22:21 35.236837 -120.637875 51 221ft 3kts
31-Jul-20 22:22 35.237411 -120.638526 273 221ft 4kts
31-Jul-20 22:23 35.237917 -120.638366 63 221ft 0kts
31-Jul-20 22:24 35.237933 -120.638328 63 221ft 0kts
31-Jul-20 22:25 35.237933 -120.638328 63 221ft 0kts
31-Jul-20 22:26 35.237933 -120.638328 63 221ft 0kts

Navigation Log

Ident Type
Flight plan parsing failed, navigation log unavailable